Time;durP1;ratioP1;P1;durP2;ratioP2;P2;SDS_P1;SDS_P2;PMS_P1;PMS_P2;Temp;Humidity;BMP_temperature;BMP_pressure;BME280_temperature;BME280_humidity;BME280_pressure;Samples;Min_cycle;Max_cycle;Signal;HPM_P1;HPM_P2
2022/10/06 00:00:47;;;;;;;28.33;26.43;;;;;;;13.50;100.00;101238.16;5033513;28;20820;-46
2022/10/06 00:03:15;;;;;;;27.80;25.90;;;;;;;13.52;100.00;101240.63;5033253;28;20472;-43
2022/10/06 00:05:43;;;;;;;28.77;26.67;;;;;;;13.55;100.00;101241.06;5033383;28;21076;-43
2022/10/06 00:08:11;;;;;;;28.70;26.60;;;;;;;13.55;100.00;101243.75;5033662;28;20440;-43
2022/10/06 00:10:38;;;;;;;28.50;26.43;;;;;;;13.57;100.00;101246.19;5033607;28;20428;-41
2022/10/06 00:13:07;;;;;;;29.33;27.30;;;;;;;13.58;100.00;101259.41;5032807;28;20963;-44
2022/10/06 00:15:36;;;;;;;29.53;27.50;;;;;;;13.60;100.00;101259.19;5033335;28;20428;-44
2022/10/06 00:18:04;;;;;;;28.03;26.40;;;;;;;13.58;100.00;101266.63;5033373;28;20511;-44
2022/10/06 00:20:31;;;;;;;29.40;27.37;;;;;;;13.54;100.00;101268.88;5032969;28;20868;-45
2022/10/06 00:22:59;;;;;;;27.67;26.10;;;;;;;13.48;100.00;101267.00;5032644;28;20509;-44
2022/10/06 00:25:28;;;;;;;30.47;27.97;;;;;;;13.44;100.00;101276.47;5033090;28;20989;-44
2022/10/06 00:27:55;;;;;;;29.63;27.70;;;;;;;13.36;100.00;101287.38;5033159;28;20428;-43
2022/10/06 00:30:25;;;;;;;29.30;27.37;;;;;;;13.26;100.00;101286.94;5033122;28;20468;-44
2022/10/06 00:32:56;;;;;;;28.80;27.10;;;;;;;13.16;100.00;101292.66;5032456;28;20509;-44
2022/10/06 00:35:25;;;;;;;29.90;27.50;;;;;;;13.12;100.00;101288.72;5032932;28;20439;-43
2022/10/06 00:37:52;;;;;;;30.63;28.43;;;;;;;13.08;100.00;101286.66;5032976;28;20490;-43
2022/10/06 00:40:21;;;;;;;30.20;28.27;;;;;;;13.02;100.00;101285.56;5032832;28;20476;-44
2022/10/06 00:42:52;;;;;;;30.47;28.33;;;;;;;13.00;100.00;101292.97;5031884;28;20464;-43
2022/10/06 00:45:26;;;;;;;30.77;28.60;;;;;;;12.95;100.00;101281.22;5032544;28;20498;-44
2022/10/06 00:48:00;;;;;;;30.40;28.50;;;;;;;12.88;100.00;101273.13;5032951;28;20439;-45
2022/10/06 00:50:28;;;;;;;30.30;28.17;;;;;;;12.86;100.00;101272.53;5032649;28;20451;-46
2022/10/06 00:52:56;;;;;;;30.80;28.50;;;;;;;12.83;100.00;101277.44;5031225;28;21043;-44
2022/10/06 00:55:24;;;;;;;31.13;29.00;;;;;;;12.79;100.00;101287.72;5032600;28;20950;-46
2022/10/06 00:57:52;;;;;;;31.60;28.70;;;;;;;12.77;100.00;101297.78;5032432;28;20440;-43
2022/10/06 01:00:20;;;;;;;31.10;29.00;;;;;;;12.74;100.00;101300.88;5032582;28;20490;-43
2022/10/06 01:02:52;;;;;;;30.60;28.40;;;;;;;12.72;100.00;101308.28;5096400;22;20981;-54
2022/10/06 01:05:26;;;;;;;31.83;28.60;;;;;;;12.70;100.00;101321.84;5092749;28;20418;-51
2022/10/06 01:07:54;;;;;;;29.60;27.50;;;;;;;12.71;100.00;101323.50;5092666;28;20950;-52
2022/10/06 01:10:22;;;;;;;31.07;28.57;;;;;;;12.76;100.00;101318.38;5092466;28;20433;-51
2022/10/06 01:12:50;;;;;;;30.83;27.70;;;;;;;12.80;100.00;101323.34;5076325;28;20500;-49
2022/10/06 01:15:19;;;;;;;30.70;28.20;;;;;;;12.83;100.00;101317.59;5072372;28;20457;-51
2022/10/06 01:17:53;;;;;;;27.77;25.77;;;;;;;12.85;100.00;101319.03;5072288;28;20491;-47
2022/10/06 01:20:23;;;;;;;29.30;26.80;;;;;;;12.87;100.00;101332.25;5068339;28;20488;-52
2022/10/06 01:22:57;;;;;;;31.97;29.13;;;;;;;12.89;100.00;101341.72;5070306;28;20516;-51
2022/10/06 01:25:24;;;;;;;102.57;93.37;;;;;;;12.85;100.00;101353.00;5072342;28;20509;-45
2022/10/06 01:27:53;;;;;;;29.90;27.90;;;;;;;12.84;100.00;101354.88;5072175;28;20438;-49
2022/10/06 01:30:25;;;;;;;30.10;27.87;;;;;;;12.80;100.00;101364.31;5072087;28;20533;-47
2022/10/06 01:32:53;;;;;;;30.63;28.37;;;;;;;12.73;100.00;101371.47;5070351;28;20458;-47
2022/10/06 01:35:21;;;;;;;30.27;28.10;;;;;;;12.67;100.00;101378.41;5071827;28;20491;-47
2022/10/06 01:37:49;;;;;;;29.83;27.70;;;;;;;12.69;100.00;101387.06;5072037;28;20438;-47
2022/10/06 01:40:18;;;;;;;29.43;27.83;;;;;;;12.66;100.00;101392.81;5069301;28;20500;-47
2022/10/06 01:42:45;;;;;;;30.97;28.30;;;;;;;12.62;100.00;101396.91;5072523;28;20465;-48
2022/10/06 01:45:13;;;;;;;30.23;28.27;;;;;;;12.57;100.00;101407.34;5081079;28;20478;-45
2022/10/06 01:47:41;;;;;;;29.23;27.00;;;;;;;12.50;100.00;101406.50;5091232;28;20437;-48
2022/10/06 01:50:09;;;;;;;29.27;27.67;;;;;;;12.42;100.00;101424.53;5092107;28;20425;-45
2022/10/06 01:52:37;;;;;;;30.80;28.67;;;;;;;12.39;100.00;101417.72;5090384;28;20804;-45
2022/10/06 01:55:06;;;;;;;28.40;26.90;;;;;;;12.32;100.00;101413.31;5091119;28;20425;-43
2022/10/06 01:57:39;;;;;;;28.87;27.10;;;;;;;12.28;100.00;101412.03;5091909;28;20455;-47
2022/10/06 02:00:08;;;;;;;30.20;28.30;;;;;;;12.24;100.00;101426.81;5091789;28;20482;-46
2022/10/06 02:02:36;;;;;;;31.03;28.77;;;;;;;12.21;100.00;101423.47;5089874;28;20461;-48
2022/10/06 02:05:04;;;;;;;30.63;28.73;;;;;;;12.19;100.00;101425.53;5091981;28;20479;-45
2022/10/06 02:07:34;;;;;;;31.50;28.93;;;;;;;12.16;100.00;101425.06;5091829;28;20486;-51
2022/10/06 02:10:02;;;;;;;31.00;28.70;;;;;;;12.13;100.00;101425.47;5091814;28;20834;-48
2022/10/06 02:12:30;;;;;;;32.70;30.10;;;;;;;12.14;100.00;101432.47;5090818;28;20473;-44
2022/10/06 02:14:59;;;;;;;34.47;28.77;;;;;;;12.10;100.00;101432.00;5081381;28;20431;-46
2022/10/06 02:17:27;;;;;;;32.97;29.57;;;;;;;12.08;100.00;101433.22;5070191;28;20443;-45
2022/10/06 02:19:54;;;;;;;32.10;29.67;;;;;;;12.07;100.00;101445.75;5070131;28;20434;-48
2022/10/06 02:22:22;;;;;;;33.80;29.67;;;;;;;12.07;100.00;101435.06;5070514;28;20565;-47
2022/10/06 02:24:50;;;;;;;31.00;28.67;;;;;;;12.11;100.00;101435.53;5071425;28;20844;-45
2022/10/06 02:27:17;;;;;;;32.07;28.60;;;;;;;12.07;100.00;101442.25;5071296;28;20438;-45
2022/10/06 02:29:45;;;;;;;32.63;29.17;;;;;;;12.05;100.00;101441.63;5071258;28;20506;-48
2022/10/06 02:32:14;;;;;;;30.93;28.30;;;;;;;12.00;100.00;101436.03;5070685;28;20503;-50
2022/10/06 02:34:42;;;;;;;32.50;30.07;;;;;;;11.99;100.00;101451.22;5071248;28;20849;-51
2022/10/06 02:37:11;;;;;;;32.50;30.07;;;;;;;11.98;100.00;101448.72;5071286;28;20438;-52
2022/10/06 02:39:39;;;;;;;36.53;30.67;;;;;;;11.95;100.00;101463.31;5071228;28;20430;-45
2022/10/06 02:42:07;;;;;;;31.63;28.70;;;;;;;11.98;100.00;101452.25;5070169;28;20469;-46
2022/10/06 02:44:34;;;;;;;33.27;30.37;;;;;;;11.98;100.00;101457.59;5071457;28;20835;-47
2022/10/06 02:47:02;;;;;;;33.47;30.37;;;;;;;12.01;100.00;101475.91;5071330;28;20484;-47
2022/10/06 02:49:31;;;;;;;32.30;29.10;;;;;;;12.05;100.00;101468.34;5071239;28;20487;-45
2022/10/06 02:51:58;;;;;;;31.53;29.10;;;;;;;12.09;100.00;101483.84;5070444;28;20458;-45
2022/10/06 02:54:26;;;;;;;35.93;30.27;;;;;;;12.11;100.00;101481.81;5071021;28;20779;-45
2022/10/06 02:56:53;;;;;;;33.30;30.00;;;;;;;12.16;100.00;101499.94;5071264;28;20430;-49
2022/10/06 02:59:21;;;;;;;32.17;29.23;;;;;;;12.18;100.00;101500.59;5071210;28;20435;-48
2022/10/06 03:01:48;;;;;;;37.03;30.47;;;;;;;12.19;100.00;101510.25;5069966;28;20986;-54
2022/10/06 03:04:16;;;;;;;32.23;29.60;;;;;;;12.22;100.00;101507.22;5070969;28;20430;-50
2022/10/06 03:06:45;;;;;;;32.43;29.33;;;;;;;12.24;100.00;101525.75;5072212;28;20430;-48
2022/10/06 03:09:13;;;;;;;32.53;29.60;;;;;;;12.23;100.00;101524.94;5074528;28;20484;-48
2022/10/06 03:11:42;;;;;;;33.60;30.13;;;;;;;12.23;100.00;101524.09;5073879;28;20500;-48
2022/10/06 03:14:10;;;;;;;33.57;30.77;;;;;;;12.23;100.00;101522.25;5074791;28;20422;-49
2022/10/06 03:16:40;;;;;;;33.93;29.60;;;;;;;12.23;100.00;101532.13;5074631;28;20434;-49
2022/10/06 03:19:09;;;;;;;33.00;30.10;;;;;;;12.19;100.00;101534.31;5072669;28;20772;-49
2022/10/06 03:21:38;;;;;;;32.80;30.13;;;;;;;12.14;100.00;101550.13;5072033;28;20454;-50
2022/10/06 03:24:07;;;;;;;32.70;30.00;;;;;;;12.10;100.00;101556.84;5074541;28;20434;-51
2022/10/06 03:26:37;;;;;;;32.37;29.87;;;;;;;12.06;100.00;101561.75;5074198;28;20920;-47
2022/10/06 03:29:05;;;;;;;33.97;30.87;;;;;;;12.03;100.00;101562.13;5074364;28;20849;-47
2022/10/06 03:31:38;;;;;;;34.93;31.93;;;;;;;12.00;100.00;101565.16;5073486;28;20500;-46
2022/10/06 03:34:06;;;;;;;33.87;31.23;;;;;;;11.97;100.00;101570.88;5074106;28;20445;-47
2022/10/06 03:36:35;;;;;;;34.37;31.50;;;;;;;11.91;100.00;101576.13;5074351;28;20488;-45
2022/10/06 03:39:05;;;;;;;33.90;31.00;;;;;;;11.89;100.00;101583.50;5074188;28;20476;-49
2022/10/06 03:41:35;;;;;;;36.60;33.63;;;;;;;11.84;100.00;101578.72;5073790;28;20473;-43
2022/10/06 03:44:05;;;;;;;34.10;31.60;;;;;;;11.81;100.00;101588.94;5073802;28;20434;-46
2022/10/06 03:46:34;;;;;;;37.40;33.80;;;;;;;11.79;100.00;101599.00;5073938;28;21101;-49
2022/10/06 03:49:02;;;;;;;36.30;32.83;;;;;;;11.75;100.00;101595.84;5074115;28;20521;-46
2022/10/06 03:51:32;;;;;;;37.20;32.23;;;;;;;11.75;100.00;101605.69;5073742;28;20495;-45
2022/10/06 03:54:00;;;;;;;37.37;32.97;;;;;;;11.73;100.00;101599.72;5073657;28;20434;-47
2022/10/06 03:56:29;;;;;;;34.53;31.30;;;;;;;11.72;100.00;101606.06;5073810;28;20997;-47
2022/10/06 03:58:59;;;;;;;35.93;32.40;;;;;;;11.70;100.00;101600.94;5074299;28;20441;-48
2022/10/06 04:01:29;;;;;;;34.07;31.00;;;;;;;11.68;100.00;101600.22;5073467;28;20500;-48
2022/10/06 04:03:59;;;;;;;33.43;30.33;;;;;;;11.68;100.00;101613.59;5073083;28;20979;-48
2022/10/06 04:06:29;;;;;;;33.97;31.23;;;;;;;11.64;100.00;101614.97;5073766;28;20508;-45
2022/10/06 04:08:56;;;;;;;34.47;31.57;;;;;;;11.62;100.00;101623.16;5073566;28;20457;-47
2022/10/06 04:11:26;;;;;;;34.40;30.70;;;;;;;11.60;100.00;101621.69;5073126;28;20423;-48
2022/10/06 04:13:59;;;;;;;35.07;32.20;;;;;;;11.59;100.00;101626.19;5072854;28;20469;-48
2022/10/06 04:16:28;;;;;;;34.60;31.70;;;;;;;11.60;100.00;101630.53;5073566;28;20787;-50
2022/10/06 04:18:57;;;;;;;35.97;32.60;;;;;;;11.59;100.00;101628.03;5072418;28;20514;-46
2022/10/06 04:21:26;;;;;;;35.67;32.63;;;;;;;11.60;100.00;101641.22;5070038;28;20488;-47
2022/10/06 04:23:54;;;;;;;35.00;31.60;;;;;;;11.61;100.00;101650.06;5072588;28;20474;-47
2022/10/06 04:26:24;;;;;;;34.90;32.03;;;;;;;11.62;100.00;101665.06;5073117;28;20426;-48
2022/10/06 04:28:53;;;;;;;34.23;31.40;;;;;;;11.61;100.00;101669.63;5073117;28;20434;-52
2022/10/06 04:31:25;;;;;;;35.13;32.00;;;;;;;11.63;100.00;101672.09;5072904;28;20475;-48
2022/10/06 04:33:56;;;;;;;35.40;32.63;;;;;;;11.61;100.00;101677.63;5072490;28;20558;-50
2022/10/06 04:36:25;;;;;;;36.33;33.03;;;;;;;11.59;100.00;101673.44;5073017;28;20426;-48
2022/10/06 04:38:57;;;;;;;36.43;32.60;;;;;;;11.62;100.00;101686.44;5073164;28;20434;-50
2022/10/06 04:41:27;;;;;;;34.73;31.83;;;;;;;11.64;100.00;101689.78;5072802;28;20484;-52
2022/10/06 04:43:55;;;;;;;37.40;33.77;;;;;;;11.68;100.00;101697.25;5072091;28;20478;-53
2022/10/06 04:46:25;;;;;;;35.87;32.87;;;;;;;11.70;100.00;101705.13;5072775;28;20491;-53
2022/10/06 04:49:11;;;;;;;35.20;32.23;;;;;;;11.73;100.00;101710.13;5072734;28;20425;-50
2022/10/06 04:51:46;;;;;;;33.70;30.70;;;;;;;11.76;100.00;101722.28;5072105;28;20470;-53
2022/10/06 04:54:14;;;;;;;36.27;32.93;;;;;;;11.76;100.00;101725.78;5072677;28;20457;-43
2022/10/06 04:56:41;;;;;;;34.57;31.10;;;;;;;11.78;100.00;101722.91;5072654;28;20838;-50
2022/10/06 04:59:09;;;;;;;35.13;31.23;;;;;;;11.80;100.00;101727.06;5072601;28;20830;-46
2022/10/06 05:01:38;;;;;;;35.97;32.27;;;;;;;11.81;100.00;101730.56;5071449;28;20492;-50
2022/10/06 05:04:06;;;;;;;34.63;31.83;;;;;;;11.83;100.00;101739.22;5072553;28;20473;-45
2022/10/06 05:06:35;;;;;;;34.37;30.97;;;;;;;11.83;100.00;101744.56;5072496;28;20480;-50
2022/10/06 05:09:05;;;;;;;34.43;31.83;;;;;;;11.82;100.00;101742.94;5071290;28;20434;-50
2022/10/06 05:11:33;;;;;;;34.60;31.30;;;;;;;11.81;100.00;101754.63;5071609;28;20454;-44
2022/10/06 05:14:01;;;;;;;36.83;33.07;;;;;;;11.79;100.00;101754.81;5071727;28;20492;-46
2022/10/06 05:16:30;;;;;;;33.13;30.10;;;;;;;11.79;100.00;101759.34;5072277;28;20430;-45
2022/10/06 05:19:00;;;;;;;34.70;31.37;;;;;;;11.81;100.00;101759.97;5072224;28;20436;-53
2022/10/06 05:21:29;;;;;;;37.20;31.30;;;;;;;11.84;100.00;101771.13;5063369;28;20450;-50
2022/10/06 05:23:58;;;;;;;33.50;30.53;;;;;;;11.88;100.00;101777.81;5070565;28;20475;-49
2022/10/06 05:26:28;;;;;;;35.33;31.80;;;;;;;11.91;100.00;101782.78;5071668;28;20993;-50
2022/10/06 05:28:55;;;;;;;33.90;30.60;;;;;;;11.93;100.00;101790.63;5069919;28;20496;-48
2022/10/06 05:31:25;;;;;;;34.10;31.30;;;;;;;11.94;100.00;101808.31;5069619;28;20434;-46
2022/10/06 05:33:54;;;;;;;33.80;31.20;;;;;;;11.95;100.00;101800.09;5070321;28;20826;-46
2022/10/06 05:36:25;;;;;;;34.77;31.70;;;;;;;11.94;100.00;101809.16;5070555;28;20488;-50
2022/10/06 05:38:52;;;;;;;33.67;30.70;;;;;;;11.96;100.00;101811.63;5071595;28;20434;-53
2022/10/06 05:41:22;;;;;;;36.40;32.30;;;;;;;11.96;100.00;101816.97;5071324;28;20452;-54
2022/10/06 05:43:50;;;;;;;35.40;31.93;;;;;;;11.94;100.00;101824.34;5070651;28;21057;-51
2022/10/06 05:46:21;;;;;;;34.73;31.60;;;;;;;11.96;100.00;101827.69;5070146;28;20460;-48
2022/10/06 05:48:50;;;;;;;35.03;32.30;;;;;;;11.97;100.00;101829.34;5071597;28;20483;-49
2022/10/06 05:51:20;;;;;;;34.67;32.03;;;;;;;12.02;100.00;101834.97;5071193;28;20438;-51
2022/10/06 05:53:49;;;;;;;35.70;32.63;;;;;;;12.06;100.00;101823.75;5071048;28;21074;-54
2022/10/06 05:56:18;;;;;;;34.93;31.83;;;;;;;12.10;100.00;101833.06;5071410;28;20503;-52
2022/10/06 05:58:47;;;;;;;36.23;31.73;;;;;;;12.19;100.00;101847.19;5071543;28;21017;-51
2022/10/06 06:01:17;;;;;;;35.63;32.30;;;;;;;12.29;100.00;101844.28;5071167;28;20464;-51
2022/10/06 06:03:48;;;;;;;35.30;31.73;;;;;;;12.41;100.00;101857.03;5070954;28;20577;-54
2022/10/06 06:06:17;;;;;;;34.60;31.80;;;;;;;12.47;100.00;101856.31;5071225;28;20430;-54
2022/10/06 06:08:46;;;;;;;34.30;31.17;;;;;;;12.53;100.00;101866.28;5071449;28;20517;-51
2022/10/06 06:11:15;;;;;;;35.13;31.97;;;;;;;12.60;100.00;101866.41;5071173;28;20423;-54
2022/10/06 06:13:42;;;;;;;35.47;32.07;;;;;;;12.66;100.00;101879.06;5070808;28;20871;-55
2022/10/06 06:16:13;;;;;;;35.10;32.27;;;;;;;12.75;100.00;101880.63;5071384;28;20923;-53
2022/10/06 06:18:41;;;;;;;34.67;31.30;;;;;;;12.78;100.00;101883.75;5071073;28;20500;-53
2022/10/06 06:21:10;;;;;;;36.90;30.90;;;;;;;12.80;100.00;101890.78;5067393;28;20431;-49
2022/10/06 06:23:39;;;;;;;35.43;32.00;;;;;;;12.89;100.00;101903.06;5069934;28;20470;-49
2022/10/06 06:26:08;;;;;;;32.87;30.20;;;;;;;12.93;100.00;101905.19;5071282;28;20513;-50
2022/10/06 06:28:39;;;;;;;34.67;31.93;;;;;;;13.01;100.00;101915.81;5071154;28;20438;-50
2022/10/06 06:31:09;;;;;;;35.97;33.00;;;;;;;13.06;100.00;101924.13;5070725;28;20430;-50
2022/10/06 06:33:38;;;;;;;35.83;33.00;;;;;;;13.13;100.00;101921.56;5070660;28;20516;-52
2022/10/06 06:36:13;;;;;;;34.60;31.77;;;;;;;13.15;100.00;101922.22;5070938;28;20480;-53
2022/10/06 06:38:41;;;;;;;34.70;31.60;;;;;;;13.22;100.00;101925.81;5071112;28;20468;-49
2022/10/06 06:41:17;;;;;;;33.70;31.00;;;;;;;13.29;100.00;101937.44;5071041;28;20526;-50
2022/10/06 06:43:46;;;;;;;33.80;31.40;;;;;;;13.32;100.00;101950.47;5074144;28;20535;-46
2022/10/06 06:46:16;;;;;;;36.30;32.63;;;;;;;13.45;100.00;101945.31;5075221;28;20430;-49
2022/10/06 06:48:44;;;;;;;34.87;32.23;;;;;;;13.51;100.00;101936.50;5074713;28;20474;-52
2022/10/06 06:51:11;;;;;;;32.07;29.90;;;;;;;13.68;100.00;101955.88;5074495;28;20460;-47
2022/10/06 06:53:40;;;;;;;35.13;32.43;;;;;;;13.77;100.00;101949.41;5073961;28;20866;-46
2022/10/06 06:56:09;;;;;;;34.37;31.50;;;;;;;13.76;100.00;101951.28;5074544;28;20931;-53
2022/10/06 06:58:36;;;;;;;33.67;30.97;;;;;;;13.84;100.00;101966.41;5074953;28;20849;-54
2022/10/06 07:01:07;;;;;;;36.67;32.87;;;;;;;13.88;100.00;101973.06;5074226;28;20426;-54
2022/10/06 07:03:35;;;;;;;34.13;31.73;;;;;;;14.00;100.00;101976.94;5073973;28;20465;-54
2022/10/06 07:06:25;;;;;;;33.57;31.27;;;;;;;14.13;100.00;101970.84;5074727;28;20427;-54
2022/10/06 07:08:55;;;;;;;33.53;31.20;;;;;;;14.27;100.00;101986.09;5074397;28;20470;-49
2022/10/06 07:11:25;;;;;;;32.40;30.10;;;;;;;14.46;100.00;101995.38;5074212;28;20427;-51
2022/10/06 07:13:54;;;;;;;32.07;29.93;;;;;;;14.64;100.00;101991.22;5073829;28;20507;-53
2022/10/06 07:27:30;;;;;;;32.53;30.23;;;;;;;15.78;91.42;102006.09;5074080;28;20442;-46
2022/10/06 07:29:57;;;;;;;32.43;29.77;;;;;;;15.92;92.00;102005.94;5074267;28;20434;-44
2022/10/06 07:32:29;;;;;;;31.20;28.27;;;;;;;15.90;89.19;102017.94;5073479;28;20516;-46
2022/10/06 07:34:58;;;;;;;29.83;27.43;;;;;;;15.83;86.77;102014.41;5074177;28;20426;-48
2022/10/06 07:37:25;;;;;;;29.33;27.17;;;;;;;15.76;87.01;102022.44;5073726;28;20430;-47
2022/10/06 07:39:53;;;;;;;29.00;26.73;;;;;;;15.74;86.34;102024.47;5073665;28;20422;-49
2022/10/06 07:42:21;;;;;;;29.33;27.10;;;;;;;15.76;87.71;102033.19;5073025;28;20462;-48
2022/10/06 07:47:32;;;;;;;27.60;25.97;;;;;;;15.74;87.21;102046.00;5073057;28;20484;-48
2022/10/06 07:50:00;;;;;;;27.47;25.37;;;;;;;15.66;86.37;102054.25;5073658;28;20438;-53
2022/10/06 07:52:28;;;;;;;27.40;25.40;;;;;;;15.56;86.69;102055.63;5072208;28;20474;-53
2022/10/06 07:54:57;;;;;;;25.13;23.20;;;;;;;15.55;85.96;102059.34;5073324;28;20476;-48
2022/10/06 07:57:25;;;;;;;24.33;22.53;;;;;;;15.47;85.01;102063.84;5073724;28;21012;-51
2022/10/06 07:59:53;;;;;;;24.63;22.80;;;;;;;15.51;86.11;102072.34;5073664;28;20434;-54
2022/10/06 08:02:25;;;;;;;24.50;22.50;;;;;;;15.59;86.38;102074.88;5072646;28;20550;-53
2022/10/06 08:04:58;;;;;;;25.27;23.27;;;;;;;15.69;86.70;102078.03;5073234;28;20478;-52
2022/10/06 08:07:26;;;;;;;23.33;21.73;;;;;;;15.70;83.85;102092.31;5073568;28;20438;-51
2022/10/06 08:09:54;;;;;;;26.60;21.40;;;;;;;15.74;83.57;102080.16;5073597;28;20834;-48
2022/10/06 08:12:36;;;;;;;21.53;19.93;;;;;;;15.84;83.76;102089.50;5072403;28;20470;-48
2022/10/06 08:15:05;;;;;;;22.37;20.17;;;;;;;15.94;83.56;102091.84;5073295;28;20427;-47
2022/10/06 08:17:35;;;;;;;21.93;19.77;;;;;;;16.06;83.68;102087.56;5073105;28;20438;-46
2022/10/06 08:20:05;;;;;;;20.07;18.00;;;;;;;16.02;81.87;102089.81;5069676;28;20795;-45
2022/10/06 08:22:34;;;;;;;23.10;20.40;;;;;;;16.00;82.31;102093.75;5072377;28;20466;-44
2022/10/06 08:25:03;;;;;;;18.20;16.63;;;;;;;16.04;82.34;102105.75;5072944;28;20470;-50
2022/10/06 08:27:34;;;;;;;18.17;16.43;;;;;;;16.25;83.98;102115.56;5073044;28;20495;-46
2022/10/06 08:30:02;;;;;;;23.40;16.53;;;;;;;16.27;81.38;102108.16;5072875;28;20430;-50
2022/10/06 08:32:30;;;;;;;16.43;14.93;;;;;;;16.37;81.10;102113.97;5072247;28;20830;-48
2022/10/06 08:34:58;;;;;;;16.23;14.80;;;;;;;16.58;79.99;102125.47;5072899;28;20426;-46
2022/10/06 08:37:27;;;;;;;18.37;16.40;;;;;;;16.80;80.37;102123.47;5072787;28;20499;-44
2022/10/06 08:39:56;;;;;;;15.93;14.30;;;;;;;16.93;78.50;102128.91;5072898;28;20440;-48
2022/10/06 08:42:31;;;;;;;15.43;14.13;;;;;;;17.06;78.17;102128.91;5071928;28;20466;-46
2022/10/06 08:45:02;;;;;;;15.83;14.20;;;;;;;17.08;76.78;102148.38;5072599;28;20994;-47
2022/10/06 08:47:34;;;;;;;16.73;13.80;;;;;;;17.23;77.31;102137.44;5072662;28;20434;-48
2022/10/06 08:50:04;;;;;;;15.90;14.03;;;;;;;16.91;72.17;102143.59;5072632;28;20434;-51
2022/10/06 08:52:49;;;;;;;16.83;13.40;;;;;;;16.92;73.56;102153.34;5071840;28;20470;-52
2022/10/06 08:55:31;;;;;;;14.97;13.03;;;;;;;16.64;75.17;102164.25;5072456;28;20426;-48
2022/10/06 08:58:10;;;;;;;12.33;11.60;;;;;;;16.39;76.48;102172.00;5072470;28;20434;-51
2022/10/06 09:00:43;;;;;;;13.67;12.50;;;;;;;16.44;78.05;102179.47;5072348;28;20438;-49
2022/10/06 09:03:22;;;;;;;14.37;13.13;;;;;;;16.66;79.30;102186.44;5071507;28;20466;-51
2022/10/06 09:05:52;;;;;;;16.93;14.07;;;;;;;16.83;78.10;102186.91;5072111;28;20830;-51
2022/10/06 09:08:40;;;;;;;14.10;12.97;;;;;;;16.84;77.34;102185.88;5072307;28;20439;-44
2022/10/06 09:11:22;;;;;;;14.10;12.50;;;;;;;16.93;76.72;102187.34;5071890;28;20921;-45
2022/10/06 09:13:56;;;;;;;13.37;12.13;;;;;;;17.05;76.75;102202.69;5071586;28;20458;-46
2022/10/06 09:16:28;;;;;;;16.13;13.33;;;;;;;17.13;74.57;102209.78;5072334;28;20430;-46
2022/10/06 09:19:04;;;;;;;13.70;11.60;;;;;;;17.12;73.54;102205.41;5072045;28;20444;-44
2022/10/06 09:21:41;;;;;;;12.80;11.50;;;;;;;17.07;71.65;102208.75;5062881;28;20449;-46
2022/10/06 09:24:15;;;;;;;16.47;12.57;;;;;;;17.01;70.09;102214.94;5071982;28;20776;-51
2022/10/06 09:26:45;;;;;;;12.70;10.97;;;;;;;17.04;68.51;102214.53;5071738;28;20561;-44
2022/10/06 09:29:13;;;;;;;12.50;11.30;;;;;;;17.19;71.31;102224.31;5072005;28;20438;-42
2022/10/06 09:31:47;;;;;;;15.03;11.03;;;;;;;17.11;70.51;102226.16;5071204;28;20516;-48
2022/10/06 09:34:37;;;;;;;14.67;11.27;;;;;;;17.04;69.18;102229.88;5071872;28;20461;-49
2022/10/06 09:37:08;;;;;;;17.73;10.37;;;;;;;17.00;68.54;102220.50;5071730;28;20914;-46
2022/10/06 09:39:39;;;;;;;10.70;9.40;;;;;;;16.90;68.14;102226.31;5071875;28;20434;-48
2022/10/06 09:42:13;;;;;;;17.47;9.73;;;;;;;17.12;68.01;102229.69;5070721;28;20496;-50
2022/10/06 09:44:49;;;;;;;15.43;10.20;;;;;;;17.23;68.87;102236.34;5071574;28;20430;-49
2022/10/06 09:47:34;;;;;;;9.90;8.87;;;;;;;17.33;69.16;102236.78;5071459;28;20973;-49
2022/10/06 09:50:04;;;;;;;11.70;9.27;;;;;;;17.17;68.04;102249.59;5071562;28;20430;-47
2022/10/06 09:52:31;;;;;;;18.87;9.40;;;;;;;17.52;69.80;102253.00;5070798;28;20611;-45
2022/10/06 09:55:11;;;;;;;13.97;9.77;;;;;;;17.56;67.59;102250.75;5071600;28;20730;-46
2022/10/06 09:57:46;;;;;;;19.87;9.10;;;;;;;17.58;69.87;102259.47;5071945;28;20496;-46
2022/10/06 10:00:28;;;;;;;11.20;8.57;;;;;;;17.43;67.75;102256.94;5071580;28;20429;-49
2022/10/06 10:02:58;;;;;;;12.03;9.10;;;;;;;17.37;69.85;102268.53;5071130;28;20918;-52
2022/10/06 10:05:28;;;;;;;12.17;9.60;;;;;;;17.12;70.18;102268.25;5071556;28;20910;-47
2022/10/06 10:08:08;;;;;;;13.67;8.30;;;;;;;16.80;69.34;102268.97;5071331;28;20434;-47
2022/10/06 10:10:37;;;;;;;11.10;8.30;;;;;;;16.78;71.66;102278.28;5071497;28;21166;-43
2022/10/06 10:13:19;;;;;;;15.83;8.53;;;;;;;16.80;72.04;102287.81;5070614;28;20519;-48
2022/10/06 10:15:53;;;;;;;13.83;8.37;;;;;;;16.65;71.26;102272.81;5071472;28;20423;-47
2022/10/06 10:18:25;;;;;;;13.27;8.53;;;;;;;16.57;71.77;102276.50;5075405;28;20845;-47
2022/10/06 10:20:57;;;;;;;15.33;9.10;;;;;;;16.59;72.88;102291.44;5066735;28;20926;-46
2022/10/06 10:23:29;;;;;;;14.43;9.83;;;;;;;16.52;74.22;102279.75;5074669;28;20512;-44
2022/10/06 10:26:30;;;;;;;22.13;10.30;;;;;;;16.78;71.68;102287.19;5075337;28;20469;-48
2022/10/06 10:29:14;;;;;;;14.93;8.63;;;;;;;16.54;73.04;102285.81;5075412;28;20487;-46
2022/10/06 10:31:50;;;;;;;14.37;8.53;;;;;;;16.47;74.93;102292.16;5074543;28;20868;-45
2022/10/06 10:34:34;;;;;;;9.97;9.00;;;;;;;16.21;74.43;102298.22;5075039;28;20435;-48
2022/10/06 10:37:06;;;;;;;13.03;8.50;;;;;;;16.21;75.13;102300.06;5074946;28;20434;-47
2022/10/06 10:39:38;;;;;;;9.57;8.50;;;;;;;16.17;74.74;102304.16;5075161;28;20460;-48
2022/10/06 10:42:17;;;;;;;10.73;8.67;;;;;;;16.56;74.07;102308.00;5074098;28;20986;-47
2022/10/06 10:44:51;;;;;;;11.07;7.80;;;;;;;16.75;73.19;102309.16;5074846;28;20935;-45
2022/10/06 10:47:26;;;;;;;18.83;9.37;;;;;;;17.14;69.99;102303.91;5075003;28;20471;-44
2022/10/06 10:50:03;;;;;;;14.40;8.37;;;;;;;17.40;70.14;102313.97;5075214;28;20430;-46
2022/10/06 10:52:36;;;;;;;15.20;8.90;;;;;;;17.52;67.43;102306.09;5074261;28;20499;-49
2022/10/06 10:55:20;;;;;;;15.97;8.80;;;;;;;17.75;66.41;102311.16;5074773;28;20441;-46
2022/10/06 10:57:50;;;;;;;13.60;8.57;;;;;;;17.56;66.29;102327.09;5074617;28;20474;-51
2022/10/06 11:00:20;;;;;;;8.97;7.97;;;;;;;17.54;66.20;102320.22;5074788;28;20519;-45
2022/10/06 11:02:49;;;;;;;13.93;8.03;;;;;;;17.66;66.89;102322.16;5073592;28;20477;-47
2022/10/06 11:05:39;;;;;;;17.93;8.97;;;;;;;17.26;67.67;102333.00;5074148;28;20943;-46
2022/10/06 11:08:14;;;;;;;13.90;8.13;;;;;;;17.26;68.24;102341.94;5074577;28;20583;-47
2022/10/06 11:10:47;;;;;;;17.13;7.27;;;;;;;17.09;68.64;102335.19;5074764;28;20433;-52
2022/10/06 11:13:26;;;;;;;18.97;8.97;;;;;;;17.11;69.27;102335.84;5070825;28;20477;-45
2022/10/06 11:16:07;;;;;;;7.77;6.87;;;;;;;17.53;67.81;102337.44;5070844;28;20475;-48
2022/10/06 11:18:46;;;;;;;13.40;8.83;;;;;;;17.86;69.49;102342.94;5068664;28;20807;-49
2022/10/06 11:21:17;;;;;;;10.80;7.37;;;;;;;17.99;67.54;102343.78;5069272;28;20826;-43
2022/10/06 11:23:57;;;;;;;13.83;7.83;;;;;;;18.16;67.17;102344.19;5055234;28;20983;-49
2022/10/06 11:26:40;;;;;;;16.67;7.70;;;;;;;18.18;66.25;102352.94;5053051;28;21015;-51
2022/10/06 11:29:25;;;;;;;14.40;7.87;;;;;;;18.23;68.14;102351.25;5053705;28;20431;-44
2022/10/06 11:32:03;;;;;;;12.10;7.50;;;;;;;18.34;65.83;102340.88;5053385;28;20447;-43
2022/10/06 11:34:30;;;;;;;14.47;8.93;;;;;;;18.49;64.38;102349.59;5054105;28;20469;-43